createdAt,value
2023-01-31T00:03:32.553Z,99613.69
2023-01-31T00:08:35.491Z,99639.16
2023-01-31T00:13:40.357Z,99631.34
2023-01-31T00:18:44.273Z,99626.63
2023-01-31T00:23:48.938Z,99623.91
2023-01-31T00:28:54.657Z,99612.84
2023-01-31T00:33:58.192Z,99613.31
2023-01-31T00:39:03.941Z,99621.88
2023-01-31T00:44:07.717Z,99606.16
2023-01-31T00:49:10.669Z,99619.13
2023-01-31T00:54:13.574Z,99613.31
2023-01-31T00:59:16.605Z,99617.09
2023-01-31T01:04:19.564Z,99632.31
2023-01-31T01:09:22.949Z,99639.78
2023-01-31T01:14:26.008Z,99638.69
2023-01-31T01:19:28.944Z,99643.72
2023-01-31T01:24:31.986Z,99643.81
2023-01-31T01:29:35.315Z,99650.34
2023-01-31T01:34:38.356Z,99657.00
2023-01-31T01:39:41.505Z,99665.56
2023-01-31T01:44:55.046Z,99681.28
2023-01-31T01:50:28.017Z,99678.19
2023-01-31T01:55:42.707Z,99686.03
2023-01-31T02:00:47.305Z,99708.91
2023-01-31T02:05:55.149Z,99718.69
2023-01-31T02:11:21.555Z,99727.72
2023-01-31T02:16:25.888Z,99726.78
2023-01-31T02:22:16.067Z,99727.59
2023-01-31T02:27:56.716Z,99751.66
2023-01-31T02:33:19.434Z,99737.72
2023-01-31T02:38:49.529Z,99730.00
2023-01-31T02:44:29.925Z,99732.47
2023-01-31T02:49:51.521Z,99745.44
2023-01-31T02:55:33.304Z,99761.16
2023-01-31T03:00:39.632Z,99756.53
2023-01-31T03:05:42.972Z,99754.59
2023-01-31T03:11:06.876Z,99769.84
2023-01-31T03:16:39.429Z,99791.75
2023-01-31T03:21:49.541Z,99790.19
2023-01-31T03:26:58.954Z,99784.09
2023-01-31T03:32:30.557Z,99809.81
2023-01-31T03:37:52.414Z,99806.81
2023-01-31T03:42:58.758Z,99818.75
2023-01-31T03:48:04.133Z,99835.66
2023-01-31T03:53:48.481Z,99855.56
2023-01-31T03:58:57.740Z,99861.28
2023-01-31T04:04:17.491Z,99873.91
2023-01-31T04:09:23.024Z,99881.75
2023-01-31T04:14:26.214Z,99883.56
2023-01-31T04:19:30.281Z,99897.13
2023-01-31T04:24:33.603Z,99905.00
2023-01-31T04:29:36.672Z,99909.88
2023-01-31T04:34:40.028Z,99932.22
2023-01-31T04:39:43.819Z,99942.50
2023-01-31T04:44:46.623Z,99941.78
2023-01-31T04:49:49.625Z,99952.59
2023-01-31T04:54:52.643Z,99960.47
2023-01-31T04:59:55.532Z,99968.31
2023-01-31T05:04:58.900Z,99969.53
2023-01-31T05:10:01.999Z,99974.16
2023-01-31T05:15:07.902Z,99963.69
2023-01-31T05:20:11.712Z,99976.41
2023-01-31T05:25:15.520Z,99983.91
2023-01-31T05:30:19.041Z,99979.63
2023-01-31T05:35:22.516Z,99978.69
2023-01-31T05:40:25.785Z,99996.41
2023-01-31T05:45:29.896Z,99995.34
2023-01-31T05:50:33.137Z,100005.34
2023-01-31T05:55:36.037Z,99993.19
2023-01-31T06:00:41.411Z,99996.03
2023-01-31T06:05:44.320Z,99998.44
2023-01-31T06:10:47.258Z,100001.06
2023-01-31T06:15:50.649Z,99994.97
2023-01-31T06:20:54.497Z,100000.56
2023-01-31T06:25:58.377Z,99998.16
2023-01-31T06:31:10.863Z,99995.06
2023-01-31T06:36:14.344Z,99988.13
2023-01-31T06:41:21.676Z,99989.84
2023-01-31T06:46:24.911Z,99988.13
2023-01-31T06:51:28.011Z,100000.88
2023-01-31T06:56:31.504Z,99987.59
2023-01-31T07:01:34.294Z,99989.84
2023-01-31T07:06:37.400Z,99989.50
2023-01-31T07:11:40.504Z,99998.47
2023-01-31T07:16:43.430Z,99983.13
2023-01-31T07:21:49.063Z,100010.06
2023-01-31T07:26:55.206Z,100006.72
2023-01-31T07:31:58.223Z,100007.19
2023-01-31T07:37:01.398Z,100029.44
2023-01-31T07:42:04.298Z,100031.78
2023-01-31T07:47:07.223Z,100052.63
2023-01-31T07:52:10.027Z,100056.91
2023-01-31T07:57:13.383Z,100075.97
2023-01-31T08:02:36.668Z,100096.50
2023-01-31T08:07:39.935Z,100115.31
2023-01-31T08:12:42.901Z,100120.53
2023-01-31T08:17:46.335Z,100132.44
2023-01-31T08:22:49.797Z,100137.78
2023-01-31T08:27:52.746Z,100151.63
2023-01-31T08:32:56.750Z,100155.56
2023-01-31T08:38:15.365Z,100174.47
2023-01-31T08:43:18.823Z,100186.59
2023-01-31T08:48:21.802Z,100195.31
2023-01-31T08:53:24.622Z,100207.53
2023-01-31T08:58:34.053Z,100205.19
2023-01-31T09:03:37.356Z,100207.00
2023-01-31T09:08:40.244Z,100223.66
2023-01-31T09:13:43.900Z,100223.50
2023-01-31T09:18:47.567Z,100240.06
2023-01-31T09:23:57.544Z,100236.28
2023-01-31T09:29:01.718Z,100243.38
2023-01-31T09:34:04.775Z,100238.56
2023-01-31T09:39:07.642Z,100234.28
2023-01-31T09:44:33.297Z,100244.72
2023-01-31T09:50:12.427Z,100254.00
2023-01-31T09:55:25.525Z,100256.72
2023-01-31T10:00:54.484Z,100264.91
2023-01-31T10:06:23.949Z,100262.31
2023-01-31T10:12:18.086Z,100261.16
2023-01-31T10:17:34.211Z,100257.91
2023-01-31T10:23:02.574Z,100263.88
2023-01-31T10:28:24.714Z,100253.84
2023-01-31T10:34:12.192Z,100257.06
2023-01-31T10:39:25.401Z,100252.31
2023-01-31T10:45:03.913Z,100265.34
2023-01-31T10:50:27.664Z,100267.91
2023-01-31T10:55:55.340Z,100245.22
2023-01-31T11:00:59.158Z,100240.19
2023-01-31T11:06:02.270Z,100240.25
2023-01-31T11:11:13.449Z,100226.53
2023-01-31T11:16:17.579Z,100222.38
2023-01-31T11:21:26.450Z,100216.91
2023-01-31T11:26:37.903Z,100204.47
2023-01-31T11:31:43.450Z,100208.41
2023-01-31T11:36:47.318Z,100207.28
2023-01-31T11:41:50.651Z,100204.50
2023-01-31T11:47:05.274Z,100203.25
2023-01-31T11:52:16.671Z,100197.91
2023-01-31T11:57:29.224Z,100200.63
2023-01-31T12:03:08.710Z,100198.56
2023-01-31T12:08:43.600Z,100185.03
2023-01-31T12:14:01.151Z,100181.16
2023-01-31T12:19:13.370Z,100189.22
2023-01-31T12:25:00.488Z,100187.13
2023-01-31T12:30:53.254Z,100181.41
2023-01-31T12:36:32.373Z,100185.25
2023-01-31T12:41:59.283Z,100192.75
2023-01-31T12:47:39.781Z,100197.66
2023-01-31T12:53:18.097Z,100200.72
2023-01-31T12:58:39.551Z,100215.00
2023-01-31T13:03:46.038Z,100236.00
2023-01-31T13:09:20.222Z,100213.81
2023-01-31T13:14:29.733Z,100208.78
2023-01-31T13:19:32.584Z,100215.94
2023-01-31T13:24:42.739Z,100218.56
2023-01-31T13:30:08.522Z,100219.00
2023-01-31T13:35:32.518Z,100232.91
2023-01-31T13:41:02.079Z,100228.84
2023-01-31T13:46:10.275Z,100224.25
2023-01-31T13:51:30.031Z,100216.50
2023-01-31T13:56:36.814Z,100233.19
2023-01-31T14:01:49.880Z,100229.88
2023-01-31T14:07:06.715Z,100234.66
2023-01-31T14:12:18.369Z,100254.72
2023-01-31T14:17:30.095Z,100256.94
2023-01-31T14:22:36.475Z,100263.06
2023-01-31T14:28:02.810Z,100250.78
2023-01-31T14:33:12.469Z,100253.28
2023-01-31T14:38:44.343Z,100263.56
2023-01-31T14:44:08.505Z,100266.56
2023-01-31T14:49:48.897Z,100260.97
2023-01-31T14:55:31.337Z,100259.91
2023-01-31T15:00:38.853Z,100272.69
2023-01-31T15:05:56.759Z,100281.19
2023-01-31T15:11:02.385Z,100263.16
2023-01-31T15:16:30.551Z,100270.69
2023-01-31T15:21:52.031Z,100272.94
2023-01-31T15:26:56.695Z,100272.38
2023-01-31T15:32:14.185Z,100274.53
2023-01-31T15:37:31.920Z,100268.91
2023-01-31T15:42:34.970Z,100261.38
2023-01-31T15:47:37.995Z,100267.56
2023-01-31T15:52:40.977Z,100254.69
2023-01-31T15:57:57.143Z,100245.56
2023-01-31T16:03:01.878Z,100255.69
2023-01-31T16:08:20.815Z,100265.81
2023-01-31T16:13:25.238Z,100266.41
2023-01-31T16:18:28.378Z,100268.66
2023-01-31T16:23:36.168Z,100263.63
2023-01-31T16:28:47.850Z,100272.31
2023-01-31T16:33:57.610Z,100281.03
2023-01-31T16:39:07.777Z,100272.13
2023-01-31T16:44:19.726Z,100286.06
2023-01-31T16:49:36.281Z,100272.00
2023-01-31T16:55:02.560Z,100273.44
2023-01-31T17:00:28.501Z,100266.78
2023-01-31T17:05:42.844Z,100269.91
2023-01-31T17:10:47.984Z,100269.78
2023-01-31T17:15:51.356Z,100267.03
2023-01-31T17:20:54.663Z,100267.97
2023-01-31T17:25:57.414Z,100271.44
2023-01-31T17:31:00.569Z,100274.81
2023-01-31T17:36:03.973Z,100266.81
2023-01-31T17:41:13.901Z,100269.31
2023-01-31T17:46:18.958Z,100265.72
2023-01-31T17:51:21.896Z,100260.38
2023-01-31T17:56:24.936Z,100257.66
2023-01-31T18:01:27.983Z,100257.31
2023-01-31T18:06:31.121Z,100244.28
2023-01-31T18:11:34.469Z,100245.34
2023-01-31T18:16:37.460Z,100251.66
2023-01-31T18:21:44.000Z,100253.34
2023-01-31T18:26:53.590Z,100249.66
2023-01-31T18:31:57.929Z,100244.28
2023-01-31T18:37:06.634Z,100247.63
2023-01-31T18:42:09.517Z,100240.97
2023-01-31T18:47:14.318Z,100241.19
2023-01-31T18:52:17.642Z,100242.88
2023-01-31T18:57:20.727Z,100238.56
2023-01-31T19:02:23.702Z,100247.03
2023-01-31T19:07:27.567Z,100246.09
2023-01-31T19:12:30.530Z,100258.50
2023-01-31T19:17:33.716Z,100261.59
2023-01-31T19:22:36.645Z,100250.72
2023-01-31T19:27:40.955Z,100256.31
2023-01-31T19:32:43.871Z,100253.53
2023-01-31T19:37:46.770Z,100264.50
2023-01-31T19:42:49.991Z,100248.97
2023-01-31T19:47:52.984Z,100244.84
2023-01-31T19:52:56.140Z,100240.88
2023-01-31T19:58:00.709Z,100239.75
2023-01-31T20:03:03.879Z,100244.34
2023-01-31T20:08:07.807Z,100243.13
2023-01-31T20:13:10.922Z,100237.50
2023-01-31T20:18:13.879Z,100239.75
2023-01-31T20:23:16.750Z,100234.22
2023-01-31T20:28:20.861Z,100243.47
2023-01-31T20:33:24.033Z,100242.34
2023-01-31T20:38:28.062Z,100229.28
2023-01-31T20:43:31.115Z,100222.91
2023-01-31T20:48:34.263Z,100221.56
2023-01-31T20:53:37.796Z,100203.31
2023-01-31T20:58:43.270Z,100201.88
2023-01-31T21:03:46.060Z,100190.78
2023-01-31T21:08:49.831Z,100194.56
2023-01-31T21:13:52.782Z,100191.09
2023-01-31T21:18:57.309Z,100189.44
2023-01-31T21:24:00.747Z,100182.22
2023-01-31T21:29:04.342Z,100184.59
2023-01-31T21:34:07.259Z,100186.19
2023-01-31T21:39:12.703Z,100184.16
2023-01-31T21:44:15.542Z,100182.06
2023-01-31T21:49:18.500Z,100184.47
2023-01-31T21:54:21.642Z,100173.78
2023-01-31T21:59:25.331Z,100186.75
2023-01-31T22:04:28.235Z,100175.94
2023-01-31T22:09:31.138Z,100163.50
2023-01-31T22:14:34.220Z,100161.38
2023-01-31T22:19:37.105Z,100154.84
2023-01-31T22:24:40.425Z,100164.16
2023-01-31T22:29:43.407Z,100149.88
2023-01-31T22:34:46.421Z,100149.44
2023-01-31T22:39:50.626Z,100147.66
2023-01-31T22:44:53.545Z,100144.72
2023-01-31T22:49:56.524Z,100143.63
2023-01-31T22:54:59.478Z,100132.81
2023-01-31T23:00:02.392Z,100123.66
2023-01-31T23:05:09.703Z,100116.19
2023-01-31T23:10:12.597Z,100103.31
2023-01-31T23:15:16.094Z,100106.22
2023-01-31T23:20:20.727Z,100100.28
2023-01-31T23:25:27.999Z,100102.41
2023-01-31T23:30:31.446Z,100100.91
2023-01-31T23:35:34.469Z,100103.16
2023-01-31T23:40:37.482Z,100077.31
2023-01-31T23:45:40.544Z,100079.91
2023-01-31T23:50:43.700Z,100071.19
2023-01-31T23:55:46.776Z,100072.50
